Time;durP1;ratioP1;P1;durP2;ratioP2;P2;SDS_P1;SDS_P2;PMS_P1;PMS_P2;Temp;Humidity;BMP_temperature;BMP_pressure;BME280_temperature;BME280_humidity;BME280_pressure;Samples;Min_cycle;Max_cycle;Signal;HPM_P1;HPM_P2
2023/01/20 00:01:01;;;;;;;;;26.67;23.67;;;;;4.83;68.45;101173.78;1990243;28;3590885;-76
2023/01/20 00:02:15;;;;;;;;;23.33;20.00;;;;;4.82;68.06;101174.63;1984507;28;3579407;-76
2023/01/20 00:03:26;;;;;;;;;22.67;19.33;;;;;4.82;68.06;101176.38;1976458;28;3575220;-76
2023/01/20 00:04:38;;;;;;;;;27.33;22.00;;;;;4.82;68.16;101173.75;2000392;28;3593981;-76
2023/01/20 00:05:51;;;;;;;;;26.67;22.33;;;;;4.81;68.52;101167.72;1996008;28;3588808;-76
2023/01/20 00:07:03;;;;;;;;;23.33;20.67;;;;;4.81;68.05;101170.31;1984255;28;3581503;-76
2023/01/20 00:08:14;;;;;;;;;25.50;21.00;;;;;4.81;67.82;101169.44;1990469;28;2836732;-76
2023/01/20 00:09:25;;;;;;;;;20.00;19.00;;;;;4.81;67.75;101174.66;1969115;28;3565826;-76
2023/01/20 00:10:37;;;;;;;;;21.60;19.40;;;;;4.80;67.88;101173.78;1997775;28;3564808;-76
2023/01/20 00:11:49;;;;;;;;;25.00;21.67;;;;;4.79;67.81;101176.41;1994506;28;3563786;-76
2023/01/20 00:13:01;;;;;;;;;28.67;22.67;;;;;4.76;67.60;101179.88;1999981;28;3582911;-76
2023/01/20 00:14:15;;;;;;;;;24.33;21.00;;;;;4.73;67.44;101185.06;1996264;28;3579451;-76
2023/01/20 00:15:26;;;;;;;;;25.67;22.00;;;;;4.69;67.42;101178.16;1982724;28;3566948;-76
2023/01/20 00:16:38;;;;;;;;;27.67;22.33;;;;;4.67;67.71;101185.06;1999484;28;3575248;-76
2023/01/20 00:17:50;;;;;;;;;22.00;21.33;;;;;4.68;67.77;101186.81;1997317;28;3561158;-76
2023/01/20 00:19:02;;;;;;;;;26.00;25.00;;;;;4.68;67.91;101186.81;1992268;28;3567988;-76
2023/01/20 00:20:14;;;;;;;;;24.33;21.00;;;;;4.69;67.85;101188.56;1984754;28;3575236;-76
2023/01/20 00:21:26;;;;;;;;;25.00;21.00;;;;;4.69;67.36;101193.78;1988814;28;3591994;-77
2023/01/20 00:22:41;;;;;;;;;27.00;20.33;;;;;4.67;67.30;101193.75;1994058;28;3590860;-76
2023/01/20 00:23:52;;;;;;;;;26.33;19.33;;;;;4.67;67.77;101195.47;1984040;28;2833774;-76
2023/01/20 00:25:04;;;;;;;;;26.33;18.67;;;;;4.67;67.31;101204.16;1982751;28;3583573;-76
2023/01/20 00:26:18;;;;;;;;;25.00;20.33;;;;;4.66;67.55;101199.84;1994843;28;3568983;-76
2023/01/20 00:27:29;;;;;;;;;26.67;21.33;;;;;4.66;67.75;101209.38;1990019;28;3573154;-76
2023/01/20 00:28:42;;;;;;;;;21.67;19.00;;;;;4.66;67.51;101202.44;2000154;28;3569046;-76
2023/01/20 00:29:53;;;;;;;;;28.00;23.00;;;;;4.65;67.61;101208.50;1983616;28;2855462;-76
2023/01/20 00:31:13;;;;;;;;;20.50;19.17;;;;;4.65;67.57;101203.31;1992756;28;2826307;-76
2023/01/20 00:32:24;;;;;;;;;21.00;19.00;;;;;4.64;67.46;101206.78;1959918;28;2827327;-76
2023/01/20 00:33:36;;;;;;;;;23.80;22.00;;;;;4.66;67.92;101214.59;1980161;28;2824296;-76
2023/01/20 00:34:50;;;;;;;;;23.00;20.43;;;;;4.66;67.23;101206.78;2011167;28;1843049;-76
2023/01/20 00:36:04;;;;;;;;;24.67;18.17;;;;;4.66;67.31;101218.06;2009760;28;1838937;-76
2023/01/20 00:37:15;;;;;;;;;28.33;22.33;;;;;4.67;67.39;101217.19;1954115;28;3580488;-76
2023/01/20 00:38:29;;;;;;;;;27.00;22.63;;;;;4.69;67.57;101222.41;1486571;28;17672450;-76
2023/01/20 00:39:41;;;;;;;;;25.67;24.00;;;;;4.68;67.65;101221.53;1998676;28;3585676;-76
2023/01/20 00:40:53;;;;;;;;;31.50;22.75;;;;;4.70;67.63;101225.00;2006996;28;1846760;-76
2023/01/20 00:42:05;;;;;;;;;26.00;20.67;;;;;4.70;67.48;101224.13;1962102;28;3573125;-76
2023/01/20 00:43:17;;;;;;;;;24.67;23.33;;;;;4.69;67.15;101223.25;2000136;28;3585680;-76
2023/01/20 00:44:28;;;;;;;;;22.33;19.33;;;;;4.70;67.47;101222.41;1997834;28;3568986;-76
2023/01/20 00:45:40;;;;;;;;;25.67;20.33;;;;;4.67;67.39;101225.00;2000210;28;3579430;-76
2023/01/20 00:46:52;;;;;;;;;29.80;23.20;;;;;4.64;67.61;101227.63;1997381;28;3582505;-76
2023/01/20 00:48:04;;;;;;;;;19.50;14.00;;;;;4.65;67.17;101231.06;1997295;28;2818353;-76
2023/01/20 00:49:15;;;;;;;;;25.00;18.00;;;;;4.64;67.61;101231.97;1976630;28;2832595;-76
2023/01/20 00:50:29;;;;;;;;;19.86;19.43;;;;;4.63;67.52;101236.28;2018156;28;1836795;-76
2023/01/20 00:51:41;;;;;;;;;21.00;20.67;;;;;4.63;67.73;101236.28;1989510;28;3564819;-77
2023/01/20 00:52:52;;;;;;;;;21.00;18.00;;;;;4.63;67.20;101238.03;2010061;28;1835738;-77
2023/01/20 00:54:03;;;;;;;;;29.00;20.67;;;;;4.60;67.47;101236.28;1961900;28;3585685;-77
2023/01/20 00:55:16;;;;;;;;;27.17;24.67;;;;;4.58;67.44;101233.69;2007920;28;2850237;-76
2023/01/20 00:56:28;;;;;;;;;29.33;25.33;;;;;4.57;67.03;101237.16;1969629;28;3586693;-77
2023/01/20 00:57:39;;;;;;;;;20.00;19.50;;;;;4.56;67.53;101237.16;1996696;28;2830466;-77
2023/01/20 00:58:53;;;;;;;;;29.00;19.33;;;;;4.57;67.18;101242.34;1984658;28;3599185;-77
2023/01/20 01:00:05;;;;;;;;;26.33;23.00;;;;;4.57;67.50;101238.88;1977550;28;3587689;-77
2023/01/20 01:01:16;;;;;;;;;27.00;19.50;;;;;4.56;67.42;101238.03;1980697;28;2836729;-77
2023/01/20 01:02:28;;;;;;;;;20.67;19.67;;;;;4.55;67.49;101241.50;1984092;28;3571051;-76
2023/01/20 01:03:40;;;;;;;;;25.33;20.00;;;;;4.53;67.57;101242.34;2006289;28;3571072;-76
2023/01/20 01:04:52;;;;;;;;;29.00;25.00;;;;;4.53;67.18;101239.75;1994893;28;3595027;-76
2023/01/20 01:06:11;;;;;;;;;26.83;23.67;;;;;4.53;67.31;101242.34;2015752;28;2833559;-76
2023/01/20 01:07:23;;;;;;;;;24.33;21.33;;;;;4.54;67.28;101246.72;1961593;28;3570060;-76
2023/01/20 01:08:34;;;;;;;;;32.00;24.67;;;;;4.55;67.68;101243.22;1997867;28;3586694;-76
2023/01/20 01:09:46;;;;;;;;;27.40;21.40;;;;;4.54;67.68;101242.38;1999435;28;3589779;-76
2023/01/20 01:10:58;;;;;;;;;28.00;24.33;;;;;4.56;68.00;101253.66;1998570;28;3581495;-76
2023/01/20 01:12:10;;;;;;;;;33.33;22.67;;;;;4.58;67.55;101248.44;1999904;28;3614828;-76
2023/01/20 01:13:22;;;;;;;;;23.20;18.60;;;;;4.59;67.82;101253.63;1976678;28;3564841;-76
2023/01/20 01:14:34;;;;;;;;;30.67;21.33;;;;;4.61;67.75;101253.66;1998694;28;3590889;-76
2023/01/20 01:15:49;;;;;;;;;27.00;22.67;;;;;4.63;67.69;101246.72;1989836;28;3569031;-76
2023/01/20 01:17:01;;;;;;;;;28.33;22.00;;;;;4.65;67.92;101249.31;1975919;28;3581502;-76
2023/01/20 01:18:12;;;;;;;;;24.00;19.80;;;;;4.66;67.27;101248.44;2005631;28;1846163;-76
2023/01/20 01:19:24;;;;;;;;;27.00;20.33;;;;;4.67;67.49;101252.78;1983845;28;3575317;-76
2023/01/20 01:20:38;;;;;;;;;28.00;24.67;;;;;4.68;67.60;101250.19;1996020;28;3603360;-76
2023/01/20 01:21:49;;;;;;;;;28.67;24.00;;;;;4.70;67.61;101253.66;1956917;28;3590842;-76
2023/01/20 01:23:01;;;;;;;;;26.33;24.33;;;;;4.72;67.72;101251.03;2000089;28;3595083;-76
2023/01/20 01:24:14;;;;;;;;;28.33;22.67;;;;;4.72;66.93;101256.25;2008898;28;2829393;-76
2023/01/20 01:25:25;;;;;;;;;19.50;18.50;;;;;4.72;67.18;101262.34;1980146;28;1839878;-76
2023/01/20 01:26:36;;;;;;;;;27.67;25.67;;;;;4.71;66.88;101265.81;1958204;28;3585645;-76
2023/01/20 01:27:48;;;;;;;;;32.60;25.80;;;;;4.70;67.12;101266.69;2003439;28;3603320;-76
2023/01/20 01:29:01;;;;;;;;;28.00;22.17;;;;;4.70;67.06;101274.50;1993976;28;2845066;-76
2023/01/20 01:30:13;;;;;;;;;32.20;26.60;;;;;4.68;67.03;101276.22;1979983;28;3591867;-76
2023/01/20 01:31:25;;;;;;;;;30.67;25.67;;;;;4.67;66.69;101276.22;1975855;28;3596072;-76
2023/01/20 01:32:37;;;;;;;;;30.67;25.00;;;;;4.66;66.78;101277.97;1999295;28;3572157;-76
2023/01/20 01:33:49;;;;;;;;;31.00;23.67;;;;;4.64;66.96;101274.50;2003264;28;3590853;-76
2023/01/20 01:35:01;;;;;;;;;30.33;24.00;;;;;4.61;66.95;101269.28;1998313;28;3595044;-76
2023/01/20 01:36:15;;;;;;;;;28.33;21.00;;;;;4.61;67.16;101274.50;1994889;28;3583585;-76
2023/01/20 01:37:27;;;;;;;;;26.67;20.00;;;;;4.59;66.92;101271.88;1982175;28;3585660;-76
2023/01/20 01:38:40;;;;;;;;;30.00;22.40;;;;;4.60;67.06;101272.75;1994580;28;2848135;-76
2023/01/20 01:39:52;;;;;;;;;26.33;24.00;;;;;4.59;66.98;101279.69;1967286;28;3588795;-76
2023/01/20 01:41:04;;;;;;;;;30.60;22.80;;;;;4.61;67.17;101280.56;2002782;28;3592920;-76
2023/01/20 01:42:21;;;;;;;;;25.33;20.67;;;;;4.60;67.22;101272.75;1982157;28;3578366;-76
2023/01/20 01:43:35;;;;;;;;;27.33;24.00;;;;;4.61;66.90;101279.69;1983763;28;3570054;-76
2023/01/20 01:45:11;;;;;;;;;27.33;24.67;;;;;4.60;67.21;101288.38;1984079;28;3580436;-76
2023/01/20 01:46:22;;;;;;;;;28.33;24.00;;;;;4.58;67.15;101290.97;1976983;28;3588793;-76
2023/01/20 01:47:43;;;;;;;;;24.50;22.17;;;;;4.58;67.16;101297.91;2017147;28;2827299;-76
2023/01/20 01:48:58;;;;;;;;;26.67;20.33;;;;;4.56;67.24;101299.66;1962170;28;3590884;-76
2023/01/20 01:50:14;;;;;;;;;28.33;24.33;;;;;4.55;67.14;101305.72;1983718;28;3598125;-76
2023/01/20 01:51:32;;;;;;;;;29.67;27.00;;;;;4.55;67.14;101313.53;1983681;28;3570044;-76
2023/01/20 01:52:46;;;;;;;;;29.00;21.67;;;;;4.55;67.58;101313.53;1976263;28;3593990;-76
2023/01/20 01:54:17;;;;;;;;;27.33;24.00;;;;;4.55;67.52;101310.91;1982679;28;3589818;-76
2023/01/20 01:55:32;;;;;;;;;30.00;24.00;;;;;4.56;67.57;101318.75;1983855;28;3598496;-77
2023/01/20 01:56:48;;;;;;;;;32.00;24.60;;;;;4.57;67.50;101320.47;1999882;28;2847126;-76
2023/01/20 01:58:01;;;;;;;;;32.33;24.33;;;;;4.58;67.27;101324.81;1953100;28;3591862;-76
2023/01/20 01:59:14;;;;;;;;;28.00;23.00;;;;;4.58;67.35;101319.63;1987655;28;2856491;-76
2023/01/20 02:00:25;;;;;;;;;29.33;19.00;;;;;4.58;67.40;101316.13;1957690;28;3582524;-76
2023/01/20 02:01:39;;;;;;;;;22.00;19.00;;;;;4.60;67.21;101319.59;1998088;28;2827354;-76
2023/01/20 02:02:51;;;;;;;;;26.67;21.67;;;;;4.59;67.54;101317.88;1949075;28;3585653;-76
2023/01/20 02:04:08;;;;;;;;;29.67;20.67;;;;;4.62;67.51;101323.06;1986484;28;3588237;-76
2023/01/20 02:05:22;;;;;;;;;34.33;24.33;;;;;4.63;67.24;101334.38;1979524;28;3592253;-76
2023/01/20 02:06:38;;;;;;;;;19.00;15.50;;;;;4.61;67.27;101331.78;1976406;28;2819056;-76
2023/01/20 02:07:51;;;;;;;;;26.00;24.00;;;;;4.61;67.16;101326.56;1959305;28;3585679;-76
2023/01/20 02:09:03;;;;;;;;;28.33;25.00;;;;;4.59;66.80;101328.31;1988834;28;3565875;-76
2023/01/20 02:10:16;;;;;;;;;29.33;24.00;;;;;4.58;66.99;101331.75;1990804;28;3594007;-76
2023/01/20 02:11:35;;;;;;;;;23.33;20.00;;;;;4.56;66.60;101336.97;2017942;28;1841952;-77
2023/01/20 02:12:50;;;;;;;;;26.33;21.67;;;;;4.53;66.71;101334.34;1953897;28;3559620;-77
2023/01/20 02:14:01;;;;;;;;;25.67;23.67;;;;;4.51;66.57;101338.69;1982972;28;3575253;-77
2023/01/20 02:15:13;;;;;;;;;25.33;21.67;;;;;4.50;66.78;101348.25;1991002;28;2835751;-77
2023/01/20 02:16:49;;;;;;;;;30.00;24.00;;;;;4.47;66.66;101349.97;1984091;28;3588825;-77
2023/01/20 02:18:24;;;;;;;;;27.00;19.71;;;;;4.43;66.33;101346.50;2013118;28;1838332;-77
2023/01/20 02:20:20;;;;;;;;;26.00;20.00;;;;;4.41;66.77;101345.63;1976487;28;2833696;-76
2023/01/20 02:21:56;;;;;;;;;18.00;17.67;;;;;4.38;66.60;101345.59;1967176;28;3559695;-76
2023/01/20 02:23:11;;;;;;;;;26.80;21.20;;;;;4.35;66.80;101337.78;2002432;28;2826261;-76
2023/01/20 02:24:40;;;;;;;;;22.50;19.00;;;;;4.31;66.68;101344.72;1963637;28;2825242;-76
2023/01/20 02:26:05;;;;;;;;;26.40;21.60;;;;;4.29;66.55;101341.25;1970731;28;2834630;-76
2023/01/20 02:27:23;;;;;;;;;24.33;20.00;;;;;4.27;66.82;101338.63;1947920;28;2829525;-76
2023/01/20 02:28:50;;;;;;;;;25.33;21.67;;;;;4.26;66.63;101338.63;1977312;28;3561715;-76
2023/01/20 02:30:10;;;;;;;;;23.67;21.33;;;;;4.25;66.69;101342.97;1984145;28;3575253;-76
2023/01/20 02:31:49;;;;;;;;;25.00;22.33;;;;;4.25;66.94;101350.78;1983947;28;3561743;-76
2023/01/20 02:33:09;;;;;;;;;28.00;22.00;;;;;4.25;66.85;101349.91;1983957;28;3571114;-76
2023/01/20 02:34:44;;;;;;;;;28.50;25.00;;;;;4.25;66.89;101348.16;1976635;28;2853734;-76
2023/01/20 02:36:11;;;;;;;;;24.00;21.00;;;;;4.23;66.63;101356.81;1951921;28;2839973;-76
2023/01/20 02:37:27;;;;;;;;;29.33;23.67;;;;;4.21;66.63;101354.22;1975935;28;3589847;-76
2023/01/20 02:39:01;;;;;;;;;27.50;21.00;;;;;4.18;67.16;101351.59;1980046;28;2848189;-76
2023/01/20 02:41:05;;;;;;;;;28.67;21.33;;;;;4.14;66.89;101348.16;1990935;28;2823334;-76
2023/01/20 02:42:41;;;;;;;;;23.50;20.00;;;;;4.11;66.67;101360.25;1949963;29;2830483;-76
2023/01/20 02:44:21;;;;;;;;;23.00;19.50;;;;;4.08;66.84;101358.50;1984598;28;1844096;-76
2023/01/20 02:45:44;;;;;;;;;28.67;23.33;;;;;4.03;66.78;101366.28;1959348;28;3581899;-76
2023/01/20 02:47:13;;;;;;;;;23.50;22.50;;;;;3.99;66.69;101367.16;1982608;28;2832597;-76
2023/01/20 02:48:43;;;;;;;;;27.67;23.33;;;;;3.97;67.01;101365.41;1953661;28;3573190;-76
2023/01/20 02:50:00;;;;;;;;;22.33;20.33;;;;;3.94;66.45;101374.94;1983391;28;3571073;-76
2023/01/20 02:51:16;;;;;;;;;32.33;23.00;;;;;3.92;66.91;101383.59;1976421;28;3592959;-76
2023/01/20 02:52:33;;;;;;;;;27.67;22.00;;;;;3.90;67.46;101385.31;1981668;28;3583562;-76
2023/01/20 02:53:50;;;;;;;;;28.00;22.00;;;;;3.88;67.25;101387.91;1979439;28;2828406;-76
2023/01/20 02:55:08;;;;;;;;;31.33;26.67;;;;;3.88;67.79;101387.03;1955514;28;3581562;-76
2023/01/20 02:56:24;;;;;;;;;28.33;22.67;;;;;3.89;67.77;101384.44;1982535;28;3575236;-76
2023/01/20 02:57:41;;;;;;;;;29.00;22.00;;;;;3.89;67.74;101388.78;1982851;28;2839930;-76
2023/01/20 02:59:06;;;;;;;;;27.00;23.33;;;;;3.91;68.18;101389.66;1961776;28;3570031;-76
2023/01/20 03:00:41;;;;;;;;;31.00;23.67;;;;;3.92;68.30;101392.28;1980355;28;2850288;-76
2023/01/20 03:02:13;;;;;;;;;23.17;22.50;;;;;3.93;68.26;101391.41;2004489;28;1850293;-76
2023/01/20 03:03:30;;;;;;;;;30.00;26.33;;;;;3.93;67.70;101387.91;1960920;28;3583933;-76
2023/01/20 03:04:50;;;;;;;;;26.50;23.17;;;;;3.94;68.24;101390.53;2000942;28;2858559;-76
2023/01/20 03:06:09;;;;;;;;;28.33;23.00;;;;;3.97;68.45;101397.50;1981713;28;3575390;-76
2023/01/20 03:07:24;;;;;;;;;26.00;21.50;;;;;4.00;68.08;101397.50;1983124;28;2828379;-75
2023/01/20 03:08:39;;;;;;;;;29.33;23.00;;;;;4.01;68.55;101399.25;1959942;28;3587751;-76
2023/01/20 03:09:54;;;;;;;;;34.00;29.67;;;;;4.03;68.52;101405.31;1982964;28;3584591;-76
2023/01/20 03:11:08;;;;;;;;;38.00;29.00;;;;;4.04;68.27;101396.66;1983230;28;3591926;-76
2023/01/20 03:12:32;;;;;;;;;32.00;27.50;;;;;4.04;68.53;101396.66;1978169;28;2853394;-76
2023/01/20 03:13:47;;;;;;;;;34.33;31.00;;;;;4.07;68.54;101403.63;1952638;28;3574208;-76
2023/01/20 03:14:59;;;;;;;;;38.00;28.67;;;;;4.10;68.31;101400.16;1983513;28;3590860;-76
2023/01/20 03:16:14;;;;;;;;;35.67;31.33;;;;;4.12;68.37;101401.03;1988562;28;3611062;-76
2023/01/20 03:17:25;;;;;;;;;31.00;30.00;;;;;4.12;68.47;101401.91;1977576;28;2844031;-76
2023/01/20 03:18:38;;;;;;;;;38.00;31.00;;;;;4.14;68.35;101412.31;1986850;28;3613769;-76
2023/01/20 03:19:49;;;;;;;;;35.67;31.33;;;;;4.14;68.43;101404.50;1951904;28;3589838;-76
2023/01/20 03:21:04;;;;;;;;;37.00;28.00;;;;;4.15;68.22;101407.09;1990127;28;3594010;-76
2023/01/20 03:22:15;;;;;;;;;35.00;28.00;;;;;4.18;68.83;101403.66;1951685;28;3591907;-76
2023/01/20 03:23:33;;;;;;;;;40.00;28.00;;;;;4.20;68.76;101408.88;1976046;28;3608553;-76
2023/01/20 03:24:46;;;;;;;;;33.67;29.00;;;;;4.21;68.19;101410.59;1990338;28;3578384;-76
2023/01/20 03:25:57;;;;;;;;;36.50;26.00;;;;;4.22;68.46;101407.16;1990603;28;2860677;-76
2023/01/20 03:27:10;;;;;;;;;37.67;32.33;;;;;4.23;68.73;101412.34;1959136;28;3591911;-76
2023/01/20 03:28:22;;;;;;;;;34.33;28.33;;;;;4.24;68.40;101419.31;1983323;28;3596130;-76
2023/01/20 03:29:34;;;;;;;;;34.60;27.60;;;;;4.24;68.55;101421.91;1999734;28;3584579;-76
2023/01/20 03:30:45;;;;;;;;;25.67;23.33;;;;;4.23;68.12;101420.16;1986315;28;3571090;-76
2023/01/20 03:32:03;;;;;;;;;39.00;31.00;;;;;4.23;68.29;101417.56;2005845;28;3600239;-76
2023/01/20 03:33:16;;;;;;;;;36.33;31.67;;;;;4.25;67.86;101425.38;1964759;28;3601289;-76
2023/01/20 03:34:32;;;;;;;;;34.67;26.33;;;;;4.25;68.01;101430.56;1959441;28;3600351;-76
2023/01/20 03:35:43;;;;;;;;;37.67;30.67;;;;;4.25;67.89;101428.84;1961349;28;3603372;-76
2023/01/20 03:36:57;;;;;;;;;30.67;27.67;;;;;4.26;68.05;101429.72;1971668;28;3580467;-76
2023/01/20 03:38:09;;;;;;;;;32.67;26.33;;;;;4.25;68.08;101428.84;1984591;28;3612747;-76
2023/01/20 03:39:23;;;;;;;;;31.00;29.00;;;;;4.26;68.31;101425.38;1961064;28;3574194;-76
2023/01/20 03:40:47;;;;;;;;;40.33;29.00;;;;;4.27;68.23;101429.72;1984830;28;3612758;-76
2023/01/20 03:42:06;;;;;;;;;35.33;27.33;;;;;4.27;68.04;101434.91;1960865;28;3603384;-76
2023/01/20 03:43:35;;;;;;;;;34.67;25.00;;;;;4.29;68.55;101429.75;1960870;28;3618301;-76
2023/01/20 03:45:22;;;;;;;;;32.33;28.00;;;;;4.31;68.13;101432.34;1961015;28;3578735;-76
2023/01/20 03:47:02;;;;;;;;;27.67;25.67;;;;;4.33;68.52;101438.41;1961547;28;3580421;-76
2023/01/20 03:48:38;;;;;;;;;31.33;24.00;;;;;4.34;68.45;101435.84;1979425;28;3579411;-76
2023/01/20 03:49:57;;;;;;;;;29.33;23.00;;;;;4.36;68.18;101438.44;1984888;28;3591890;-76
2023/01/20 03:51:17;;;;;;;;;31.50;25.50;;;;;4.36;67.82;101443.66;1985472;28;2842974;-76
2023/01/20 03:52:34;;;;;;;;;25.67;23.00;;;;;4.36;68.21;101443.66;1961279;28;3579403;-76
2023/01/20 03:53:58;;;;;;;;;31.67;28.00;;;;;4.36;68.15;101448.84;1984604;28;3593982;-76
2023/01/20 03:55:19;;;;;;;;;32.33;24.33;;;;;4.35;67.91;101444.50;1981205;28;3610639;-76
2023/01/20 03:56:56;;;;;;;;;22.60;19.40;;;;;4.32;67.66;101442.75;1996168;28;2829441;-76
2023/01/20 03:58:15;;;;;;;;;32.67;26.67;;;;;4.29;67.90;101442.75;1954759;28;3602311;-76
2023/01/20 03:59:26;;;;;;;;;26.33;25.00;;;;;4.28;67.72;101447.09;1977133;28;3579411;-76
2023/01/20 04:00:43;;;;;;;;;25.67;24.00;;;;;4.29;67.94;101453.16;1993176;28;3580433;-76
2023/01/20 04:01:55;;;;;;;;;38.00;29.00;;;;;4.30;68.42;101451.44;1984600;28;3613796;-76
2023/01/20 04:03:15;;;;;;;;;28.33;24.00;;;;;4.33;68.52;101448.84;1972867;28;3597485;-76
2023/01/20 04:04:28;;;;;;;;;32.67;24.00;;;;;4.33;67.96;101449.72;1976234;28;3601296;-76
2023/01/20 04:05:41;;;;;;;;;29.50;24.50;;;;;4.36;67.69;101454.06;1978509;28;2853378;-76
2023/01/20 04:06:53;;;;;;;;;33.33;26.33;;;;;4.35;68.04;101445.38;1960122;28;3610671;-76
2023/01/20 04:08:08;;;;;;;;;39.33;25.67;;;;;4.35;67.99;101449.69;1997487;28;3627351;-76
2023/01/20 04:09:27;;;;;;;;;29.00;21.33;;;;;4.37;67.89;101448.00;1967503;28;3574234;-76
2023/01/20 04:10:42;;;;;;;;;29.33;24.00;;;;;4.38;68.12;101455.81;1987477;28;3589831;-76
2023/01/20 04:11:53;;;;;;;;;27.33;26.67;;;;;4.38;67.56;101454.94;1979490;28;3585644;-76
2023/01/20 04:13:04;;;;;;;;;22.00;18.00;;;;;4.41;68.23;101456.69;1989630;28;2836743;-76
2023/01/20 04:14:16;;;;;;;;;35.40;26.00;;;;;4.41;67.71;101460.16;1972776;28;3615184;-76
2023/01/20 04:15:33;;;;;;;;;33.00;27.33;;;;;4.43;67.71;101462.75;1992542;28;3576274;-76
2023/01/20 04:16:57;;;;;;;;;31.00;23.33;;;;;4.44;67.75;101461.91;1976970;28;3605446;-76
2023/01/20 04:18:16;;;;;;;;;28.00;25.00;;;;;4.45;68.08;101463.63;1954752;28;2841948;-76
2023/01/20 04:19:28;;;;;;;;;25.33;22.67;;;;;4.46;68.17;101457.56;1983955;28;3582512;-76
2023/01/20 04:20:40;;;;;;;;;27.60;23.20;;;;;4.47;68.17;101459.31;1992510;28;3577269;-76
2023/01/20 04:22:07;;;;;;;;;32.67;27.00;;;;;4.48;67.62;101464.53;1983151;28;3595018;-76
2023/01/20 04:23:31;;;;;;;;;27.33;23.00;;;;;4.48;67.95;101461.94;1984500;28;3577295;-76
2023/01/20 04:24:53;;;;;;;;;37.33;26.00;;;;;4.47;67.88;101467.13;1984593;28;3607554;-76
2023/01/20 04:26:03;;;;;;;;;32.50;23.00;;;;;4.48;67.83;101468.84;1961587;28;2860693;-76
2023/01/20 04:27:16;;;;;;;;;25.40;22.60;;;;;4.49;67.75;101474.06;1979327;28;1846564;-76
2023/01/20 04:28:27;;;;;;;;;25.00;20.00;;;;;4.48;68.14;101471.47;1959698;28;2836707;-76
2023/01/20 04:29:40;;;;;;;;;19.67;19.67;;;;;4.50;67.60;101480.16;1972770;28;2830004;-76
2023/01/20 04:30:51;;;;;;;;;26.00;23.50;;;;;4.49;67.98;101479.28;1981429;28;2846082;-76
2023/01/20 04:32:03;;;;;;;;;32.00;25.00;;;;;4.50;67.36;101481.03;1994907;28;3586687;-77
2023/01/20 04:33:14;;;;;;;;;26.33;22.33;;;;;4.48;67.61;101472.34;1983806;28;3587741;-76
2023/01/20 04:34:26;;;;;;;;;24.40;22.60;;;;;4.48;67.68;101474.94;2008997;28;1841957;-76
2023/01/20 04:35:38;;;;;;;;;27.33;22.00;;;;;4.49;67.40;101475.81;1978204;28;3585637;-76
2023/01/20 04:36:50;;;;;;;;;23.00;20.00;;;;;4.49;68.10;101478.41;1998887;28;3560146;-76
2023/01/20 04:38:02;;;;;;;;;24.33;21.33;;;;;4.50;67.96;101480.16;1995916;28;3572152;-76
2023/01/20 04:39:13;;;;;;;;;24.00;22.33;;;;;4.52;67.53;101485.38;1989945;28;3565878;-76
2023/01/20 04:40:26;;;;;;;;;26.67;24.00;;;;;4.52;67.73;101485.38;1991797;28;3583569;-76
2023/01/20 04:41:37;;;;;;;;;27.67;22.00;;;;;4.53;67.61;101487.09;1992556;28;3586747;-76
2023/01/20 04:42:49;;;;;;;;;24.33;21.67;;;;;4.51;67.44;101494.91;1997151;28;3573177;-76
2023/01/20 04:44:01;;;;;;;;;23.00;20.67;;;;;4.49;67.51;101489.69;2006316;28;3566935;-76
2023/01/20 04:45:16;;;;;;;;;19.50;16.50;;;;;4.48;67.13;101495.78;2000304;28;2826301;-76
2023/01/20 04:46:28;;;;;;;;;20.00;17.67;;;;;4.47;67.67;101504.44;1974913;28;2828017;-76
2023/01/20 04:47:38;;;;;;;;;22.50;18.00;;;;;4.45;67.57;101498.34;1982692;28;2830474;-76
2023/01/20 04:48:49;;;;;;;;;22.00;20.00;;;;;4.45;67.20;101503.56;1970488;28;2833581;-76
2023/01/20 04:50:01;;;;;;;;;22.33;19.33;;;;;4.45;67.84;101495.75;1969072;28;2827927;-76
2023/01/20 04:51:13;;;;;;;;;21.67;17.67;;;;;4.45;67.40;101503.56;1982395;28;2817028;-76
2023/01/20 04:52:26;;;;;;;;;17.67;16.50;;;;;4.44;67.21;101496.63;2021726;28;1834688;-76
2023/01/20 04:53:40;;;;;;;;;20.67;19.17;;;;;4.44;67.41;101501.84;1996477;28;1829468;-76
2023/01/20 04:54:53;;;;;;;;;26.50;20.33;;;;;4.43;67.70;101502.69;1988720;28;1835272;-76
2023/01/20 04:56:08;;;;;;;;;20.00;18.00;;;;;4.42;67.55;101500.09;1953649;28;2829835;-76
2023/01/20 04:57:19;;;;;;;;;22.00;18.50;;;;;4.41;67.69;101506.13;1954834;28;2827349;-76
2023/01/20 04:58:31;;;;;;;;;23.33;18.67;;;;;4.41;67.66;101511.34;1977667;28;2829484;-76
2023/01/20 04:59:41;;;;;;;;;17.50;15.00;;;;;4.41;67.42;101509.63;1982627;28;2826308;-76
2023/01/20 05:00:52;;;;;;;;;20.50;18.00;;;;;4.39;67.36;101517.41;1974741;28;2834602;-76
2023/01/20 05:02:03;;;;;;;;;18.50;16.00;;;;;4.39;67.38;101513.94;1970084;28;2826355;-76
2023/01/20 05:03:15;;;;;;;;;23.50;18.00;;;;;4.39;67.52;101516.56;1967575;28;2830475;-76
2023/01/20 05:04:26;;;;;;;;;18.00;15.00;;;;;4.41;67.38;101522.63;1978223;28;2808620;-76
2023/01/20 05:05:37;;;;;;;;;20.00;18.00;;;;;4.42;67.63;101518.31;1977739;28;2821084;-76
2023/01/20 05:06:48;;;;;;;;;25.00;20.00;;;;;4.42;67.17;101523.50;1978567;28;2839865;-76
2023/01/20 05:08:00;;;;;;;;;21.00;17.33;;;;;4.42;67.78;101516.53;1977264;28;3553326;-76
2023/01/20 05:09:14;;;;;;;;;19.33;18.67;;;;;4.42;67.63;101519.16;1995916;28;2825834;-76
2023/01/20 05:10:27;;;;;;;;;21.33;17.50;;;;;4.41;67.57;101514.81;2012197;28;1838367;-76
2023/01/20 05:11:41;;;;;;;;;17.33;15.83;;;;;4.40;67.74;101518.28;1984381;28;1833645;-76
2023/01/20 05:12:54;;;;;;;;;21.20;17.20;;;;;4.40;67.98;101523.47;1973373;28;2829441;-76
2023/01/20 05:14:05;;;;;;;;;24.75;19.50;;;;;4.41;67.57;101525.25;1987558;28;1841937;-76
2023/01/20 05:15:18;;;;;;;;;24.50;18.50;;;;;4.39;66.98;101519.16;1988649;28;1845120;-76
2023/01/20 05:16:30;;;;;;;;;23.67;19.00;;;;;4.37;67.47;101518.28;1961021;28;2825380;-76
2023/01/20 05:17:41;;;;;;;;;23.00;19.00;;;;;4.36;67.50;101522.63;1983059;28;2833576;-77
2023/01/20 05:18:53;;;;;;;;;19.75;16.00;;;;;4.37;67.49;101520.88;1981182;28;1854452;-76
2023/01/20 05:20:04;;;;;;;;;24.50;20.00;;;;;4.37;67.31;101523.50;1968042;28;2835658;-76
2023/01/20 05:21:15;;;;;;;;;19.33;18.00;;;;;4.37;67.14;101526.09;1958398;28;2824257;-76
2023/01/20 05:22:28;;;;;;;;;19.00;18.67;;;;;4.37;67.32;101526.94;1976479;28;2824335;-76
2023/01/20 05:23:41;;;;;;;;;16.33;14.00;;;;;4.39;67.58;101524.38;2009711;28;1835764;-76
2023/01/20 05:24:52;;;;;;;;;23.50;19.50;;;;;4.38;67.62;101518.28;1961589;28;2829432;-76
2023/01/20 05:26:03;;;;;;;;;20.00;18.00;;;;;4.39;67.24;101524.38;1976478;28;2823521;-76
2023/01/20 05:27:14;;;;;;;;;20.00;17.00;;;;;4.40;67.81;101523.47;1973457;28;2823223;-76
2023/01/20 05:28:26;;;;;;;;;25.00;19.33;;;;;4.41;67.51;101532.16;1973814;28;3568964;-76
2023/01/20 05:29:39;;;;;;;;;29.50;21.33;;;;;4.41;67.74;101529.56;2007571;28;2832514;-76
2023/01/20 05:30:50;;;;;;;;;26.75;22.25;;;;;4.41;67.32;101534.78;1978550;28;1846146;-76
2023/01/20 05:32:01;;;;;;;;;27.00;19.00;;;;;4.39;67.68;101532.19;1956708;28;2847137;-76
2023/01/20 05:33:12;;;;;;;;;26.50;20.00;;;;;4.40;67.33;101536.50;1977892;28;2831476;-76
2023/01/20 05:34:24;;;;;;;;;23.33;17.33;;;;;4.38;67.32;101538.22;1966476;28;2826371;-76
2023/01/20 05:35:39;;;;;;;;;22.00;17.33;;;;;4.38;67.65;101540.84;1983866;28;3558589;-76
2023/01/20 05:36:53;;;;;;;;;25.00;20.00;;;;;4.37;67.46;101544.31;1991301;28;2841928;-76
2023/01/20 05:38:05;;;;;;;;;23.20;19.60;;;;;4.36;67.60;101537.34;1986846;28;2826265;-76
2023/01/20 05:39:17;;;;;;;;;26.20;19.20;;;;;4.35;67.42;101544.28;1986864;28;1846738;-76
2023/01/20 05:40:29;;;;;;;;;24.00;21.67;;;;;4.35;67.27;101544.28;1983794;28;3574194;-76